createdAt,value
2018-06-29T00:04:41.863Z,87
2018-06-29T00:09:41.919Z,87
2018-06-29T00:14:41.018Z,87
2018-06-29T00:19:41.203Z,87
2018-06-29T00:24:41.274Z,88
2018-06-29T00:29:41.331Z,88
2018-06-29T00:34:41.558Z,88
2018-06-29T00:39:41.162Z,88
2018-06-29T00:44:41.211Z,88
2018-06-29T00:49:41.303Z,88
2018-06-29T00:54:41.601Z,88
2018-06-29T00:59:41.741Z,88
2018-06-29T01:04:41.932Z,88
2018-06-29T01:09:41.111Z,88
2018-06-29T01:14:41.071Z,89
2018-06-29T01:19:41.561Z,89
2018-06-29T01:24:41.731Z,89
2018-06-29T01:29:41.719Z,89
2018-06-29T01:34:41.244Z,89
2018-06-29T01:39:41.487Z,89
2018-06-29T01:44:41.642Z,90
2018-06-29T01:49:41.700Z,90
2018-06-29T01:54:41.811Z,90
2018-06-29T01:59:41.839Z,90
2018-06-29T02:04:42.129Z,90
2018-06-29T02:09:41.707Z,90
2018-06-29T02:14:41.750Z,91
2018-06-29T02:19:41.859Z,91
2018-06-29T02:24:41.900Z,91
2018-06-29T02:29:41.094Z,91
2018-06-29T02:34:41.912Z,91
2018-06-29T02:39:41.146Z,91
2018-06-29T02:44:41.213Z,91
2018-06-29T02:49:41.682Z,91
2018-06-29T02:54:41.773Z,91
2018-06-29T02:59:41.854Z,91
2018-06-29T03:04:41.897Z,92
2018-06-29T03:09:41.418Z,92
2018-06-29T03:14:41.615Z,92
2018-06-29T03:19:41.897Z,92
2018-06-29T03:24:41.979Z,92
2018-06-29T03:29:42.005Z,92
2018-06-29T03:34:42.082Z,92
2018-06-29T03:39:41.246Z,92
2018-06-29T03:44:41.295Z,93
2018-06-29T03:49:41.416Z,93
2018-06-29T03:54:41.540Z,93
2018-06-29T03:59:41.641Z,93
2018-06-29T04:04:41.872Z,93
2018-06-29T04:09:41.854Z,93
2018-06-29T04:14:41.971Z,94
2018-06-29T04:19:42.197Z,94
2018-06-29T04:24:41.178Z,94
2018-06-29T04:29:41.343Z,94
2018-06-29T04:34:41.345Z,94
2018-06-29T04:39:41.440Z,94
2018-06-29T04:44:41.542Z,95
2018-06-29T04:49:41.765Z,95
2018-06-29T04:54:41.785Z,95
2018-06-29T04:59:41.924Z,95
2018-06-29T05:04:42.295Z,96
2018-06-29T05:09:41.853Z,96
2018-06-29T05:14:41.897Z,96
2018-06-29T05:19:41.861Z,96
2018-06-29T05:24:42.040Z,96
2018-06-29T05:29:42.146Z,96
2018-06-29T05:34:42.325Z,96
2018-06-29T05:39:41.390Z,96
2018-06-29T05:44:41.589Z,96
2018-06-29T05:49:41.736Z,96
2018-06-29T05:54:41.836Z,96
2018-06-29T05:59:41.891Z,96
2018-06-29T06:04:41.939Z,95
2018-06-29T06:09:42.128Z,95
2018-06-29T06:14:42.210Z,94
2018-06-29T06:19:42.049Z,94
2018-06-29T06:24:41.429Z,90
2018-06-29T06:29:41.515Z,90
2018-06-29T06:34:41.582Z,86
2018-06-29T06:39:41.651Z,86
2018-06-29T06:44:41.757Z,81
2018-06-29T06:49:42.015Z,81
2018-06-29T06:54:42.152Z,76
2018-06-29T06:59:42.183Z,76
2018-06-29T07:04:42.379Z,72
2018-06-29T07:09:41.877Z,72
2018-06-29T07:14:42.048Z,68
2018-06-29T07:19:42.186Z,68
2018-06-29T07:24:42.321Z,64
2018-06-29T07:29:41.449Z,64
2018-06-29T07:34:41.563Z,62
2018-06-29T07:39:41.691Z,62
2018-06-29T07:44:41.713Z,60
2018-06-29T07:49:41.765Z,60
2018-06-29T07:54:41.781Z,57
2018-06-29T07:59:41.821Z,57
2018-06-29T08:04:42.029Z,58
2018-06-29T08:09:42.329Z,58
2018-06-29T08:14:41.424Z,56
2018-06-29T08:19:41.661Z,56
2018-06-29T08:24:41.663Z,56
2018-06-29T08:29:41.817Z,56
2018-06-29T08:34:41.979Z,58
2018-06-29T08:39:41.994Z,58
2018-06-29T08:44:42.012Z,54
2018-06-29T08:49:42.316Z,54
2018-06-29T08:54:42.464Z,58
2018-06-29T08:59:41.578Z,58
2018-06-29T09:04:41.724Z,57
2018-06-29T09:09:41.690Z,57
2018-06-29T09:14:41.750Z,55
2018-06-29T09:19:41.901Z,55
2018-06-29T09:24:42.016Z,57
2018-06-29T09:29:42.040Z,57
2018-06-29T09:34:42.140Z,55
2018-06-29T09:39:42.297Z,55
2018-06-29T09:44:42.397Z,56
2018-06-29T09:49:41.595Z,56
2018-06-29T09:54:41.620Z,54
2018-06-29T09:59:41.669Z,54
2018-06-29T10:04:41.977Z,58
2018-06-29T10:09:41.604Z,58
2018-06-29T10:14:41.666Z,55
2018-06-29T10:19:42.595Z,55
2018-06-29T10:24:41.814Z,55
2018-06-29T10:29:41.858Z,55
2018-06-29T10:34:41.957Z,55
2018-06-29T10:39:42.039Z,55
2018-06-29T10:44:42.152Z,58
2018-06-29T10:49:42.228Z,58
2018-06-29T10:54:42.302Z,57
2018-06-29T10:59:42.479Z,57
2018-06-29T11:04:42.614Z,57
2018-06-29T11:09:41.839Z,57
2018-06-29T11:14:41.905Z,53
2018-06-29T11:19:41.940Z,53
2018-06-29T11:24:41.997Z,55
2018-06-29T11:29:42.104Z,55
2018-06-29T11:34:42.145Z,56
2018-06-29T11:39:42.291Z,56
2018-06-29T11:44:42.377Z,54
2018-06-29T11:49:42.536Z,54
2018-06-29T11:54:41.699Z,55
2018-06-29T11:59:41.793Z,55
2018-06-29T12:04:41.903Z,55
2018-06-29T12:09:42.195Z,55
2018-06-29T12:14:42.262Z,54
2018-06-29T12:19:42.495Z,54
2018-06-29T12:24:42.542Z,58
2018-06-29T12:29:42.580Z,58
2018-06-29T12:34:42.048Z,58
2018-06-29T12:39:42.073Z,58
2018-06-29T12:44:42.245Z,56
2018-06-29T12:49:42.392Z,56
2018-06-29T12:54:42.449Z,56
2018-06-29T12:59:42.526Z,56
2018-06-29T13:04:42.806Z,54
2018-06-29T13:09:42.114Z,54
2018-06-29T13:14:42.056Z,53
2018-06-29T13:19:42.266Z,53
2018-06-29T13:24:42.284Z,53
2018-06-29T13:29:42.415Z,53
2018-06-29T13:34:42.556Z,53
2018-06-29T13:39:42.718Z,53
2018-06-29T13:44:41.882Z,55
2018-06-29T13:49:42.563Z,55
2018-06-29T13:54:42.227Z,56
2018-06-29T13:59:41.938Z,56
2018-06-29T14:04:42.646Z,54
2018-06-29T14:09:42.494Z,54
2018-06-29T14:14:42.304Z,52
2018-06-29T14:19:41.902Z,52
2018-06-29T14:24:42.662Z,53
2018-06-29T14:29:42.360Z,53
2018-06-29T14:34:42.102Z,54
2018-06-29T14:39:42.717Z,54
2018-06-29T14:44:42.565Z,53
2018-06-29T14:49:42.216Z,53
2018-06-29T14:54:42.889Z,55
2018-06-29T14:59:42.619Z,55
2018-06-29T15:04:42.389Z,52
2018-06-29T15:09:42.191Z,52
2018-06-29T15:14:42.365Z,54
2018-06-29T15:19:42.018Z,54
2018-06-29T15:24:42.728Z,53
2018-06-29T15:29:42.351Z,53
2018-06-29T15:34:42.108Z,49
2018-06-29T15:39:42.776Z,49
2018-06-29T15:44:42.325Z,53
2018-06-29T15:49:42.102Z,53
2018-06-29T15:54:42.877Z,54
2018-06-29T15:59:42.687Z,54
2018-06-29T16:04:42.456Z,52
2018-06-29T16:09:42.145Z,52
2018-06-29T16:14:42.487Z,53
2018-06-29T16:19:42.231Z,53
2018-06-29T16:24:43.052Z,56
2018-06-29T16:29:42.729Z,56
2018-06-29T16:34:42.421Z,56
2018-06-29T16:39:42.196Z,56
2018-06-29T16:44:43.014Z,56
2018-06-29T16:49:42.741Z,56
2018-06-29T16:54:42.581Z,57
2018-06-29T16:59:42.213Z,57
2018-06-29T17:04:42.976Z,59
2018-06-29T17:09:42.695Z,59
2018-06-29T17:14:42.623Z,61
2018-06-29T17:19:42.324Z,61
2018-06-29T17:24:42.119Z,61
2018-06-29T17:29:42.852Z,61
2018-06-29T17:34:42.896Z,62
2018-06-29T17:39:42.493Z,62
2018-06-29T17:44:42.260Z,63
2018-06-29T17:49:43.019Z,63
2018-06-29T17:54:42.668Z,63
2018-06-29T17:59:42.667Z,63
2018-06-29T18:04:42.576Z,63
2018-06-29T18:09:42.256Z,63
2018-06-29T18:14:42.338Z,64
2018-06-29T18:19:42.954Z,64
2018-06-29T18:24:42.632Z,64
2018-06-29T18:29:42.188Z,64
2018-06-29T18:34:42.988Z,65
2018-06-29T18:39:42.623Z,65
2018-06-29T18:44:42.398Z,66
2018-06-29T18:49:43.036Z,66
2018-06-29T18:54:42.715Z,66
2018-06-29T18:59:42.395Z,66
2018-06-29T19:04:42.500Z,66
2018-06-29T19:09:42.348Z,66
2018-06-29T19:14:42.915Z,68
2018-06-29T19:19:42.659Z,68
2018-06-29T19:24:42.419Z,68
2018-06-29T19:29:42.918Z,68
2018-06-29T19:34:42.694Z,69
2018-06-29T19:39:42.694Z,69
2018-06-29T19:44:42.467Z,70
2018-06-29T19:49:43.128Z,70
2018-06-29T19:54:42.706Z,71
2018-06-29T19:59:42.339Z,71
2018-06-29T20:04:43.102Z,72
2018-06-29T20:09:42.853Z,72
2018-06-29T20:14:42.885Z,73
2018-06-29T20:19:42.518Z,73
2018-06-29T20:24:42.359Z,74
2018-06-29T20:29:42.977Z,74
2018-06-29T20:34:42.984Z,75
2018-06-29T20:39:42.578Z,75
2018-06-29T20:44:42.427Z,76
2018-06-29T20:49:43.174Z,76
2018-06-29T20:54:42.886Z,77
2018-06-29T20:59:42.591Z,77
2018-06-29T21:04:42.517Z,78
2018-06-29T21:09:43.273Z,78
2018-06-29T21:14:42.499Z,79
2018-06-29T21:19:43.219Z,79
2018-06-29T21:24:42.962Z,80
2018-06-29T21:29:42.548Z,80
2018-06-29T21:34:43.232Z,81
2018-06-29T21:39:42.844Z,81
2018-06-29T21:44:42.539Z,81
2018-06-29T21:49:43.135Z,81
2018-06-29T21:54:43.091Z,82
2018-06-29T21:59:42.718Z,82
2018-06-29T22:04:42.619Z,82
2018-06-29T22:09:43.349Z,82
2018-06-29T22:14:42.674Z,83
2018-06-29T22:19:42.583Z,83
2018-06-29T22:24:43.285Z,84
2018-06-29T22:29:42.911Z,84
2018-06-29T22:34:42.717Z,84
2018-06-29T22:39:42.501Z,84
2018-06-29T22:44:43.280Z,85
2018-06-29T22:49:43.044Z,85
2018-06-29T22:54:42.909Z,85
2018-06-29T22:59:42.582Z,85
2018-06-29T23:04:42.568Z,85
2018-06-29T23:09:43.262Z,85
2018-06-29T23:14:43.350Z,86
2018-06-29T23:19:43.065Z,86
2018-06-29T23:24:42.792Z,86
2018-06-29T23:29:43.610Z,86
2018-06-29T23:34:43.594Z,87
2018-06-29T23:39:43.263Z,87
2018-06-29T23:44:42.878Z,87
2018-06-29T23:49:43.557Z,87
2018-06-29T23:54:43.459Z,88
2018-06-29T23:59:43.121Z,88
